createdAt,value
2017-12-03T00:00:07.382Z,-1.10
2017-12-03T00:02:35.772Z,-1.10
2017-12-03T00:05:03.356Z,-1.10
2017-12-03T00:07:30.939Z,-1.10
2017-12-03T00:09:58.527Z,-1.10
2017-12-03T00:12:26.126Z,-1.10
2017-12-03T00:14:53.721Z,-1.10
2017-12-03T00:17:21.271Z,-1.10
2017-12-03T00:19:48.858Z,-1.10
2017-12-03T00:22:16.475Z,-1.10
2017-12-03T00:24:44.048Z,-1.10
2017-12-03T00:27:11.617Z,-1.10
2017-12-03T00:29:39.227Z,-1.10
2017-12-03T00:32:07.561Z,-1.10
2017-12-03T00:34:35.135Z,-1.10
2017-12-03T00:37:02.720Z,-1.10
2017-12-03T00:39:31.051Z,-1.10
2017-12-03T00:41:58.632Z,-1.10
2017-12-03T00:44:26.229Z,-1.10
2017-12-03T00:46:54.563Z,-1.10
2017-12-03T00:49:22.137Z,-1.10
2017-12-03T00:51:49.743Z,-1.10
2017-12-03T00:54:17.311Z,-1.20
2017-12-03T00:56:44.874Z,-1.10
2017-12-03T00:59:12.498Z,-1.20
2017-12-03T01:01:40.840Z,-1.20
2017-12-03T01:04:08.397Z,-1.20
2017-12-03T01:06:36.777Z,-1.20
2017-12-03T01:09:04.418Z,-1.20
2017-12-03T01:11:31.991Z,-1.20
2017-12-03T01:13:59.576Z,-1.20
2017-12-03T01:16:27.133Z,-1.20
2017-12-03T01:18:54.693Z,-1.20
2017-12-03T01:21:22.293Z,-1.20
2017-12-03T01:23:49.854Z,-1.10
2017-12-03T01:26:17.446Z,-1.10
2017-12-03T01:28:45.099Z,-1.10
2017-12-03T01:31:12.701Z,-1.10
2017-12-03T01:33:40.263Z,-1.10
2017-12-03T01:36:07.857Z,-1.10
2017-12-03T01:38:35.445Z,-1.10
2017-12-03T01:41:03.019Z,-1.20
2017-12-03T01:43:30.648Z,-1.10
2017-12-03T01:45:58.248Z,-1.10
2017-12-03T01:48:25.821Z,-1.10
2017-12-03T01:50:53.400Z,-1.10
2017-12-03T01:53:21.723Z,-1.10
2017-12-03T01:55:49.935Z,-1.10
2017-12-03T01:58:18.322Z,-1.10
2017-12-03T02:00:45.904Z,-1.10
2017-12-03T02:03:13.470Z,-1.10
2017-12-03T02:05:41.080Z,-1.10
2017-12-03T02:08:08.664Z,-1.10
2017-12-03T02:10:37.010Z,-1.10
2017-12-03T02:13:04.592Z,-1.10
2017-12-03T02:15:32.141Z,-1.10
2017-12-03T02:17:59.692Z,-1.10
2017-12-03T02:20:27.287Z,-1.20
2017-12-03T02:22:54.911Z,-1.20
2017-12-03T02:25:22.483Z,-1.10
2017-12-03T02:27:50.065Z,-1.20
2017-12-03T02:30:18.388Z,-1.20
2017-12-03T02:32:45.966Z,-1.20
2017-12-03T02:35:13.549Z,-1.10
2017-12-03T02:37:41.154Z,-1.20
2017-12-03T02:40:08.696Z,-1.10
2017-12-03T02:42:36.285Z,-1.10
2017-12-03T02:45:03.869Z,-1.10
2017-12-03T02:47:31.441Z,-1.10
2017-12-03T02:49:59.034Z,-1.20
2017-12-03T02:52:27.387Z,-1.20
2017-12-03T02:54:54.950Z,-1.20
2017-12-03T02:57:22.574Z,-1.20
2017-12-03T02:59:50.142Z,-1.20
2017-12-03T03:02:17.733Z,-1.20
2017-12-03T03:04:46.093Z,-1.20
2017-12-03T03:07:13.653Z,-1.20
2017-12-03T03:09:41.229Z,-1.20
2017-12-03T03:12:09.588Z,-1.20
2017-12-03T03:14:37.162Z,-1.20
2017-12-03T03:17:04.728Z,-1.20
2017-12-03T03:19:33.108Z,-1.20
2017-12-03T03:22:01.425Z,-1.20
2017-12-03T03:24:28.981Z,-1.20
2017-12-03T03:26:56.576Z,-1.20
2017-12-03T03:29:24.145Z,-1.20
2017-12-03T03:31:51.736Z,-1.20
2017-12-03T03:34:20.083Z,-1.20
2017-12-03T03:36:47.665Z,-1.20
2017-12-03T03:39:16.012Z,-1.20
2017-12-03T03:41:43.626Z,-1.20
2017-12-03T03:44:11.186Z,-1.20
2017-12-03T03:46:38.749Z,-1.20
2017-12-03T03:49:06.358Z,-1.20
2017-12-03T03:51:33.919Z,-1.20
2017-12-03T03:54:01.481Z,-1.20
2017-12-03T03:56:29.127Z,-1.20
2017-12-03T03:58:56.679Z,-1.20
2017-12-03T04:01:24.281Z,-1.20
2017-12-03T04:03:52.695Z,-1.20
2017-12-03T04:06:20.308Z,-1.20
2017-12-03T04:08:47.891Z,-1.20
2017-12-03T04:11:16.258Z,-1.20
2017-12-03T04:13:43.820Z,-1.20
2017-12-03T04:16:12.196Z,-1.20
2017-12-03T04:18:40.585Z,-1.20
2017-12-03T04:21:08.901Z,-1.20
2017-12-03T04:23:36.487Z,-1.20
2017-12-03T04:26:04.068Z,-1.20
2017-12-03T04:28:31.621Z,-1.20
2017-12-03T04:30:59.195Z,-1.20
2017-12-03T04:33:26.792Z,-1.20
2017-12-03T04:35:54.382Z,-1.20
2017-12-03T04:38:21.985Z,-1.20
2017-12-03T04:40:50.384Z,-1.20
2017-12-03T04:43:17.966Z,-1.20
2017-12-03T04:45:45.543Z,-1.20
2017-12-03T04:48:13.166Z,-1.20
2017-12-03T04:50:40.759Z,-1.20
2017-12-03T04:53:08.381Z,-1.20
2017-12-03T04:55:35.993Z,-1.20
2017-12-03T04:58:03.565Z,-1.20
2017-12-03T05:00:31.136Z,-1.20
2017-12-03T05:02:59.541Z,-1.20
2017-12-03T05:05:27.124Z,-1.20
2017-12-03T05:07:54.736Z,-1.20
2017-12-03T05:10:23.126Z,-1.20
2017-12-03T05:12:51.494Z,-1.20
2017-12-03T05:15:19.866Z,-1.20
2017-12-03T05:17:48.269Z,-1.20
2017-12-03T05:20:16.622Z,-1.20
2017-12-03T05:22:44.223Z,-1.20
2017-12-03T05:25:11.833Z,-1.30
2017-12-03T05:27:39.443Z,-1.30
2017-12-03T05:30:07.057Z,-1.30
2017-12-03T05:32:34.651Z,-1.30
2017-12-03T05:35:02.248Z,-1.20
2017-12-03T05:37:29.820Z,-1.20
2017-12-03T05:39:57.425Z,-1.20
2017-12-03T05:42:25.034Z,-1.20
2017-12-03T05:44:52.638Z,-1.30
2017-12-03T05:47:21.042Z,-1.20
2017-12-03T05:49:48.626Z,-1.30
2017-12-03T05:52:16.192Z,-1.20
2017-12-03T05:54:43.823Z,-1.20
2017-12-03T05:57:11.407Z,-1.20
2017-12-03T05:59:39.065Z,-1.20
2017-12-03T06:02:06.718Z,-1.20
2017-12-03T06:04:34.320Z,-1.20
2017-12-03T06:07:01.906Z,-1.10
2017-12-03T06:09:30.294Z,-1.10
2017-12-03T06:11:58.650Z,-1.10
2017-12-03T06:14:26.233Z,-1.10
2017-12-03T06:16:54.639Z,-1.10
2017-12-03T06:19:22.287Z,-1.10
2017-12-03T06:21:49.893Z,-1.10
2017-12-03T06:24:17.496Z,-1.10
2017-12-03T06:26:45.087Z,-1.10
2017-12-03T06:29:12.681Z,-1.10
2017-12-03T06:31:40.279Z,-1.10
2017-12-03T06:34:08.624Z,-1.10
2017-12-03T06:36:36.267Z,-1.10
2017-12-03T06:39:03.908Z,-1.00
2017-12-03T06:41:31.501Z,-1.10
2017-12-03T06:43:59.130Z,-1.10
2017-12-03T06:46:26.754Z,-1.00
2017-12-03T06:48:55.130Z,-1.00
2017-12-03T06:51:23.505Z,-1.10
2017-12-03T06:53:51.902Z,-1.10
2017-12-03T06:56:19.483Z,-1.10
2017-12-03T06:58:47.052Z,-1.10
2017-12-03T07:01:14.703Z,-1.10
2017-12-03T07:03:42.331Z,-1.10
2017-12-03T07:06:10.692Z,-1.10
2017-12-03T07:08:38.297Z,-1.10
2017-12-03T07:11:05.902Z,-1.10
2017-12-03T07:13:33.488Z,-1.10
2017-12-03T07:16:01.866Z,-1.10
2017-12-03T07:18:30.214Z,-1.20
2017-12-03T07:20:57.813Z,-1.10
2017-12-03T07:23:26.219Z,-1.10
2017-12-03T07:25:53.840Z,-1.10
2017-12-03T07:28:22.238Z,-1.10
2017-12-03T07:30:49.865Z,-1.20
2017-12-03T07:33:17.475Z,-1.10
2017-12-03T07:35:45.085Z,-1.10
2017-12-03T07:38:12.766Z,-1.10
2017-12-03T07:40:41.128Z,-1.20
2017-12-03T07:43:08.714Z,-1.20
2017-12-03T07:45:37.099Z,-1.20
2017-12-03T07:48:04.693Z,-1.20
2017-12-03T07:50:32.278Z,-1.20
2017-12-03T07:52:59.915Z,-1.20
2017-12-03T07:55:27.502Z,-1.20
2017-12-03T07:57:55.114Z,-1.20
2017-12-03T08:00:22.741Z,-1.20
2017-12-03T08:02:51.103Z,-1.10
2017-12-03T08:05:18.860Z,-1.20
2017-12-03T08:07:46.474Z,-1.10
2017-12-03T08:10:14.121Z,-1.20
2017-12-03T08:12:42.473Z,-1.20
2017-12-03T08:15:10.115Z,-1.10
2017-12-03T08:17:37.681Z,-1.10
2017-12-03T08:20:05.267Z,-1.10
2017-12-03T08:22:33.675Z,-1.20
2017-12-03T08:25:01.390Z,-1.20
2017-12-03T08:27:29.001Z,-1.10
2017-12-03T08:29:56.616Z,-1.10
2017-12-03T08:32:24.211Z,-1.10
2017-12-03T08:34:51.803Z,-1.00
2017-12-03T08:37:19.431Z,-1.00
2017-12-03T08:39:47.015Z,-1.00
2017-12-03T08:42:14.636Z,-1.00
2017-12-03T08:44:43.032Z,-1.00
2017-12-03T08:47:10.634Z,-1.00
2017-12-03T08:49:38.204Z,-0.90
2017-12-03T08:52:05.815Z,-0.90
2017-12-03T08:54:33.723Z,-0.90
2017-12-03T08:57:01.305Z,-0.90
2017-12-03T08:59:28.906Z,-0.90
2017-12-03T09:01:56.530Z,-0.90
2017-12-03T09:04:24.153Z,-0.90
2017-12-03T09:06:51.776Z,-0.80
2017-12-03T09:09:20.133Z,-0.80
2017-12-03T09:11:48.507Z,-0.80
2017-12-03T09:14:16.125Z,-0.80
2017-12-03T09:16:43.730Z,-0.70
2017-12-03T09:19:11.335Z,-0.70
2017-12-03T09:21:38.971Z,-0.70
2017-12-03T09:24:07.326Z,-0.70
2017-12-03T09:26:34.906Z,-0.70
2017-12-03T09:29:03.317Z,-0.60
2017-12-03T09:31:30.937Z,-0.60
2017-12-03T09:33:58.548Z,-0.60
2017-12-03T09:36:26.171Z,-0.60
2017-12-03T09:38:54.527Z,-0.60
2017-12-03T09:41:22.123Z,-0.60
2017-12-03T09:43:49.752Z,-0.50
2017-12-03T09:46:17.346Z,-0.50
2017-12-03T09:48:44.967Z,-0.50
2017-12-03T09:51:12.542Z,-0.50
2017-12-03T09:53:40.900Z,-0.50
2017-12-03T09:56:08.504Z,-0.40
2017-12-03T09:58:36.129Z,-0.40
2017-12-03T10:01:03.709Z,-0.40
2017-12-03T10:03:32.062Z,-0.40
2017-12-03T10:05:59.723Z,-0.40
2017-12-03T10:08:27.320Z,-0.40
2017-12-03T10:10:55.682Z,-0.40
2017-12-03T10:13:24.057Z,-0.40
2017-12-03T10:15:51.654Z,-0.40
2017-12-03T10:18:19.248Z,-0.40
2017-12-03T10:20:46.854Z,-0.40
2017-12-03T10:23:15.206Z,-0.30
2017-12-03T10:25:42.788Z,-0.30
2017-12-03T10:28:11.166Z,-0.30
2017-12-03T10:30:39.564Z,-0.30
2017-12-03T10:33:07.174Z,-0.30
2017-12-03T10:35:34.759Z,-0.30
2017-12-03T10:38:13.921Z,-0.30
2017-12-03T10:40:41.524Z,-0.30
2017-12-03T10:43:09.076Z,-0.30
2017-12-03T10:45:36.639Z,-0.30
2017-12-03T10:48:04.250Z,-0.30
2017-12-03T10:50:31.829Z,-0.30
2017-12-03T10:52:59.404Z,-0.30
2017-12-03T10:55:27.041Z,-0.20
2017-12-03T10:57:54.621Z,-0.30
2017-12-03T11:00:26.078Z,-0.20
2017-12-03T11:02:53.690Z,-0.20
2017-12-03T11:05:22.070Z,-0.20
2017-12-03T11:07:50.466Z,-0.20
2017-12-03T11:10:18.080Z,-0.20
2017-12-03T11:12:46.488Z,-0.20
2017-12-03T11:15:14.851Z,-0.20
2017-12-03T11:17:42.435Z,-0.20
2017-12-03T11:20:10.778Z,-0.20
2017-12-03T11:22:38.408Z,-0.20
2017-12-03T11:25:05.956Z,-0.20
2017-12-03T11:27:33.503Z,-0.10
2017-12-03T11:30:01.097Z,-0.20
2017-12-03T11:32:28.712Z,-0.10
2017-12-03T11:34:57.108Z,-0.10
2017-12-03T11:37:24.761Z,-0.10
2017-12-03T11:39:52.426Z,-0.10
2017-12-03T11:42:19.991Z,-0.10
2017-12-03T11:44:47.586Z,-0.10
2017-12-03T11:47:15.156Z,-0.20
2017-12-03T11:49:42.719Z,-0.20
2017-12-03T11:52:10.313Z,-0.20
2017-12-03T11:54:38.669Z,-0.10
2017-12-03T11:57:06.218Z,-0.20
2017-12-03T11:59:33.792Z,-0.20
2017-12-03T12:02:01.340Z,-0.10
2017-12-03T12:04:28.894Z,-0.10
2017-12-03T12:06:56.490Z,-0.20
2017-12-03T12:09:24.801Z,-0.20
2017-12-03T12:11:52.389Z,-0.20
2017-12-03T12:14:19.985Z,-0.20
2017-12-03T12:16:48.329Z,-0.20
2017-12-03T12:19:15.881Z,-0.20
2017-12-03T12:21:43.489Z,-0.20
2017-12-03T12:24:11.047Z,-0.20
2017-12-03T12:26:39.365Z,-0.20
2017-12-03T12:29:06.963Z,-0.20
2017-12-03T12:31:35.313Z,-0.10
2017-12-03T12:34:02.882Z,-0.20
2017-12-03T12:36:30.466Z,-0.20
2017-12-03T12:38:58.798Z,-0.20
2017-12-03T12:41:26.653Z,-0.20
2017-12-03T12:43:54.300Z,-0.20
2017-12-03T12:46:21.889Z,-0.20
2017-12-03T12:48:49.442Z,-0.20
2017-12-03T12:51:17.084Z,-0.20
2017-12-03T12:53:44.725Z,-0.20
2017-12-03T12:56:13.149Z,-0.10
2017-12-03T12:58:40.768Z,-0.10
2017-12-03T13:01:09.185Z,-0.10
2017-12-03T13:03:36.764Z,-0.10
2017-12-03T13:06:04.374Z,-0.10
2017-12-03T13:08:31.945Z,-0.10
2017-12-03T13:10:59.505Z,-0.10
2017-12-03T13:13:27.088Z,-0.10
2017-12-03T13:15:54.691Z,-0.10
2017-12-03T13:18:23.026Z,-0.10
2017-12-03T13:20:50.614Z,-0.10
2017-12-03T13:23:18.184Z,-0.10
2017-12-03T13:25:45.784Z,-0.10
2017-12-03T13:28:13.382Z,-0.10
2017-12-03T13:30:41.715Z,-0.10
2017-12-03T13:33:09.323Z,-0.10
2017-12-03T13:35:36.945Z,-0.10
2017-12-03T13:38:04.493Z,-0.10
2017-12-03T13:40:32.033Z,-0.10
2017-12-03T13:43:00.521Z,0.00
2017-12-03T13:45:28.845Z,0.00
2017-12-03T13:47:56.397Z,0.00
2017-12-03T13:50:24.027Z,0.00
2017-12-03T13:52:51.616Z,0.10
2017-12-03T13:55:19.178Z,0.00
2017-12-03T13:57:46.797Z,0.10
2017-12-03T14:00:15.157Z,0.10
2017-12-03T14:02:42.730Z,0.10
2017-12-03T14:05:11.084Z,0.20
2017-12-03T14:07:38.688Z,0.20
2017-12-03T14:10:06.256Z,0.20
2017-12-03T14:12:33.862Z,0.20
2017-12-03T14:15:02.239Z,0.20
2017-12-03T14:17:29.812Z,0.20
2017-12-03T14:19:57.402Z,0.20
2017-12-03T14:22:25.727Z,0.10
2017-12-03T14:24:53.312Z,0.10
2017-12-03T14:27:20.917Z,0.10
2017-12-03T14:29:48.465Z,0.00
2017-12-03T14:32:16.043Z,0.00
2017-12-03T14:34:43.639Z,0.00
2017-12-03T14:37:11.198Z,-0.10
2017-12-03T14:39:38.932Z,-0.20
2017-12-03T14:42:06.611Z,-0.20
2017-12-03T14:44:34.192Z,-0.30
2017-12-03T14:47:02.052Z,-0.30
2017-12-03T14:49:29.646Z,-0.40
2017-12-03T14:51:57.964Z,-0.50
2017-12-03T14:54:25.521Z,-0.50
2017-12-03T14:56:53.114Z,-0.50
2017-12-03T14:59:20.655Z,-0.60
2017-12-03T15:01:48.210Z,-0.60
2017-12-03T15:04:15.795Z,-0.60
2017-12-03T15:06:43.397Z,-0.70
2017-12-03T15:09:10.963Z,-0.70
2017-12-03T15:11:38.574Z,-0.80
2017-12-03T15:14:06.165Z,-0.80
2017-12-03T15:16:34.512Z,-0.90
2017-12-03T15:19:02.114Z,-0.90
2017-12-03T15:21:29.699Z,-1.00
2017-12-03T15:23:57.297Z,-1.00
2017-12-03T15:26:24.922Z,-1.10
2017-12-03T15:28:53.400Z,-1.10
2017-12-03T15:31:21.027Z,-1.20
2017-12-03T15:33:49.429Z,-1.30
2017-12-03T15:36:17.016Z,-1.30
2017-12-03T15:38:44.631Z,-1.30
2017-12-03T15:41:12.235Z,-1.30
2017-12-03T15:43:39.850Z,-1.20
2017-12-03T15:46:08.217Z,-1.20
2017-12-03T15:48:36.586Z,-1.20
2017-12-03T15:51:04.972Z,-1.20
2017-12-03T15:53:33.531Z,-1.20
2017-12-03T15:56:01.138Z,-1.20
2017-12-03T15:58:28.734Z,-1.20
2017-12-03T16:00:56.321Z,-1.20
2017-12-03T16:03:23.969Z,-1.10
2017-12-03T16:05:51.561Z,-1.10
2017-12-03T16:08:19.876Z,-1.10
2017-12-03T16:10:47.540Z,-1.10
2017-12-03T16:13:15.120Z,-1.10
2017-12-03T16:15:42.697Z,-1.10
2017-12-03T16:18:10.302Z,-1.10
2017-12-03T16:20:37.891Z,-1.10
2017-12-03T16:23:05.484Z,-1.10
2017-12-03T16:25:33.880Z,-1.10
2017-12-03T16:28:02.229Z,-1.20
2017-12-03T16:30:29.819Z,-1.20
2017-12-03T16:32:58.198Z,-1.20
2017-12-03T16:35:26.565Z,-1.20
2017-12-03T16:37:54.143Z,-1.20
2017-12-03T16:40:22.497Z,-1.20
2017-12-03T16:42:50.059Z,-1.20
2017-12-03T16:45:17.640Z,-1.20
2017-12-03T16:47:46.084Z,-1.20
2017-12-03T16:50:13.662Z,-1.20
2017-12-03T16:52:42.015Z,-1.20
2017-12-03T16:55:09.644Z,-1.20
2017-12-03T16:57:37.241Z,-1.20
2017-12-03T17:00:04.858Z,-1.20
2017-12-03T17:02:32.457Z,-1.20
2017-12-03T17:05:00.057Z,-1.10
2017-12-03T17:07:28.391Z,-1.20
2017-12-03T17:09:55.982Z,-1.20
2017-12-03T17:12:24.354Z,-1.20
2017-12-03T17:14:51.905Z,-1.20
2017-12-03T17:17:19.519Z,-1.20
2017-12-03T17:19:47.108Z,-1.20
2017-12-03T17:22:14.676Z,-1.20
2017-12-03T17:24:42.303Z,-1.20
2017-12-03T17:27:09.896Z,-1.30
2017-12-03T17:29:37.511Z,-1.30
2017-12-03T17:32:05.120Z,-1.30
2017-12-03T17:34:32.700Z,-1.30
2017-12-03T17:37:00.278Z,-1.30
2017-12-03T17:39:28.667Z,-1.30
2017-12-03T17:41:56.212Z,-1.30
2017-12-03T17:44:24.546Z,-1.20
2017-12-03T17:46:52.152Z,-1.30
2017-12-03T17:49:20.492Z,-1.20
2017-12-03T17:51:48.841Z,-1.20
2017-12-03T17:54:16.431Z,-1.20
2017-12-03T17:56:44.010Z,-1.20
2017-12-03T17:59:11.579Z,-1.20
2017-12-03T18:01:39.928Z,-1.20
2017-12-03T18:04:07.525Z,-1.30
2017-12-03T18:06:35.850Z,-1.20
2017-12-03T18:09:03.511Z,-1.30
2017-12-03T18:11:31.055Z,-1.30
2017-12-03T18:13:58.605Z,-1.30
2017-12-03T18:16:26.210Z,-1.20
2017-12-03T18:18:53.789Z,-1.20
2017-12-03T18:21:21.351Z,-1.20
2017-12-03T18:23:49.701Z,-1.20
2017-12-03T18:26:17.278Z,-1.20
2017-12-03T18:28:44.880Z,-1.20
2017-12-03T18:31:12.491Z,-1.20
2017-12-03T18:33:40.083Z,-1.20
2017-12-03T18:36:08.472Z,-1.20
2017-12-03T18:38:36.117Z,-1.20
2017-12-03T18:41:04.509Z,-1.20
2017-12-03T18:43:32.873Z,-1.20
2017-12-03T18:46:01.289Z,-1.20
2017-12-03T18:48:28.868Z,-1.20
2017-12-03T18:50:56.480Z,-1.20
2017-12-03T18:53:25.023Z,-1.20
2017-12-03T18:55:52.617Z,-1.20
2017-12-03T18:58:20.983Z,-1.20
2017-12-03T19:00:48.700Z,-1.20
2017-12-03T19:03:16.268Z,-1.20
2017-12-03T19:05:43.862Z,-1.20
2017-12-03T19:08:11.485Z,-1.20
2017-12-03T19:10:39.050Z,-1.20
2017-12-03T19:13:06.614Z,-1.20
2017-12-03T19:15:34.213Z,-1.20
2017-12-03T19:18:02.584Z,-1.20
2017-12-03T19:20:30.143Z,-1.20
2017-12-03T19:22:57.725Z,-1.20
2017-12-03T19:25:26.073Z,-1.20
2017-12-03T19:27:53.694Z,-1.20
2017-12-03T19:30:21.272Z,-1.20
2017-12-03T19:32:48.829Z,-1.20
2017-12-03T19:35:16.389Z,-1.20
2017-12-03T19:37:43.979Z,-1.20
2017-12-03T19:40:11.563Z,-1.20
2017-12-03T19:42:39.938Z,-1.20
2017-12-03T19:45:08.299Z,-1.20
2017-12-03T19:47:35.882Z,-1.20
2017-12-03T19:50:03.475Z,-1.20
2017-12-03T19:52:31.105Z,-1.20
2017-12-03T19:54:59.432Z,-1.20
2017-12-03T19:57:27.029Z,-1.20
2017-12-03T19:59:55.380Z,-1.20
2017-12-03T20:02:22.985Z,-1.20
2017-12-03T20:04:50.550Z,-1.20
2017-12-03T20:07:18.140Z,-1.30
2017-12-03T20:09:45.710Z,-1.30
2017-12-03T20:12:13.302Z,-1.20
2017-12-03T20:14:41.679Z,-1.30
2017-12-03T20:17:09.363Z,-1.30
2017-12-03T20:19:37.750Z,-1.30
2017-12-03T20:22:05.405Z,-1.30
2017-12-03T20:24:33.741Z,-1.30
2017-12-03T20:27:01.315Z,-1.30
2017-12-03T20:29:28.959Z,-1.30
2017-12-03T20:31:56.562Z,-1.30
2017-12-03T20:34:24.898Z,-1.30
2017-12-03T20:36:52.537Z,-1.30
2017-12-03T20:39:20.128Z,-1.30
2017-12-03T20:41:47.714Z,-1.30
2017-12-03T20:44:16.119Z,-1.30
2017-12-03T20:46:43.699Z,-1.30
2017-12-03T20:49:11.268Z,-1.30
2017-12-03T20:51:38.874Z,-1.30
2017-12-03T20:54:07.243Z,-1.30
2017-12-03T20:56:35.599Z,-1.30
2017-12-03T20:59:03.233Z,-1.30
2017-12-03T21:01:30.790Z,-1.30
2017-12-03T21:03:58.375Z,-1.30
2017-12-03T21:06:25.994Z,-1.30
2017-12-03T21:08:53.552Z,-1.30
2017-12-03T21:11:21.139Z,-1.30
2017-12-03T21:13:48.741Z,-1.40
2017-12-03T21:16:17.119Z,-1.40
2017-12-03T21:18:45.509Z,-1.30
2017-12-03T21:21:13.868Z,-1.30
2017-12-03T21:23:41.459Z,-1.30
2017-12-03T21:26:09.799Z,-1.30
2017-12-03T21:28:37.416Z,-1.30
2017-12-03T21:31:05.007Z,-1.30
2017-12-03T21:33:32.641Z,-1.30
2017-12-03T21:36:00.250Z,-1.30
2017-12-03T21:38:27.804Z,-1.30
2017-12-03T21:40:55.425Z,-1.30
2017-12-03T21:43:23.044Z,-1.30
2017-12-03T21:45:51.408Z,-1.30
2017-12-03T21:48:18.969Z,-1.30
2017-12-03T21:50:46.548Z,-1.30
2017-12-03T21:53:14.900Z,-1.30
2017-12-03T21:55:42.457Z,-1.30
2017-12-03T21:58:10.051Z,-1.30
2017-12-03T22:00:38.363Z,-1.30
2017-12-03T22:03:05.917Z,-1.30
2017-12-03T22:05:33.507Z,-1.30
2017-12-03T22:08:01.116Z,-1.30
2017-12-03T22:10:28.678Z,-1.30
2017-12-03T22:12:56.269Z,-1.20
2017-12-03T22:15:23.858Z,-1.30
2017-12-03T22:17:51.417Z,-1.30
2017-12-03T22:20:19.006Z,-1.30
2017-12-03T22:22:47.360Z,-1.30
2017-12-03T22:25:14.917Z,-1.30
2017-12-03T22:27:42.491Z,-1.30
2017-12-03T22:30:10.816Z,-1.30
2017-12-03T22:32:38.369Z,-1.30
2017-12-03T22:35:05.967Z,-1.20
2017-12-03T22:37:33.540Z,-1.30
2017-12-03T22:40:01.102Z,-1.30
2017-12-03T22:42:28.699Z,-1.30
2017-12-03T22:44:56.282Z,-1.30
2017-12-03T22:47:23.835Z,-1.30
2017-12-03T22:49:51.443Z,-1.30
2017-12-03T22:52:19.011Z,-1.30
2017-12-03T22:54:47.345Z,-1.30
2017-12-03T22:57:14.953Z,-1.30
2017-12-03T22:59:43.288Z,-1.20
2017-12-03T23:02:10.852Z,-1.20
2017-12-03T23:04:38.420Z,-1.20
2017-12-03T23:07:06.832Z,-1.20
2017-12-03T23:09:35.252Z,-1.20
2017-12-03T23:12:02.832Z,-1.20
2017-12-03T23:14:30.399Z,-1.20
2017-12-03T23:16:57.961Z,-1.20
2017-12-03T23:19:25.567Z,-1.20
2017-12-03T23:21:53.107Z,-1.20
2017-12-03T23:24:21.427Z,-1.20
2017-12-03T23:26:49.073Z,-1.20
2017-12-03T23:29:16.669Z,-1.20
2017-12-03T23:31:44.287Z,-1.20
2017-12-03T23:34:11.870Z,-1.20
2017-12-03T23:36:39.433Z,-1.20
2017-12-03T23:39:06.999Z,-1.20
2017-12-03T23:41:34.615Z,-1.20
2017-12-03T23:44:02.978Z,-1.10
2017-12-03T23:46:31.319Z,-1.10
2017-12-03T23:48:58.923Z,-1.20
2017-12-03T23:51:27.271Z,-1.10
2017-12-03T23:53:55.610Z,-1.10
2017-12-03T23:56:23.222Z,-1.10
2017-12-03T23:58:50.804Z,-1.10
